Time;durP1;ratioP1;P1;durP2;ratioP2;P2;SDS_P1;SDS_P2;PMS_P1;PMS_P2;Temp;Humidity;BMP_temperature;BMP_pressure;BME280_temperature;BME280_humidity;BME280_pressure;Samples;Min_cycle;Max_cycle;Signal;HPM_P1;HPM_P2
2023/10/01 00:02:25;;;;;;;12.82;5.18;;;;;;;13.36;100.00;100761.34;12176782;19;20353;-80
2023/10/01 00:06:27;;;;;;;8.90;4.45;;;;;;;13.31;100.00;100764.00;12193446;19;20010;-80
2023/10/01 00:10:31;;;;;;;7.55;4.28;;;;;;;13.21;100.00;100775.69;12196277;19;20077;-80
2023/10/01 00:14:34;;;;;;;13.43;5.28;;;;;;;13.15;100.00;100782.19;12170847;19;20014;-79
2023/10/01 00:18:36;;;;;;;11.25;4.60;;;;;;;13.11;100.00;100764.38;12195360;19;20014;-79
2023/10/01 00:22:38;;;;;;;8.93;4.75;;;;;;;13.09;100.00;100772.09;12202233;19;20010;-80
2023/10/01 00:26:40;;;;;;;12.13;4.43;;;;;;;13.08;100.00;100773.16;12169988;19;20011;-80
2023/10/01 00:30:44;;;;;;;10.32;5.40;;;;;;;13.08;100.00;100775.09;12203789;19;20014;-81
2023/10/01 00:34:47;;;;;;;8.90;3.93;;;;;;;13.09;100.00;100776.81;12210850;19;20003;-80
2023/10/01 00:38:50;;;;;;;8.75;4.32;;;;;;;13.05;100.00;100770.06;12171701;19;20046;-80
2023/10/01 00:42:52;;;;;;;10.85;4.25;;;;;;;13.03;100.00;100766.66;12195171;19;20006;-80
2023/10/01 00:46:54;;;;;;;12.82;4.43;;;;;;;13.03;100.00;100763.91;12169902;19;20619;-80
2023/10/01 00:50:59;;;;;;;11.13;3.80;;;;;;;13.01;100.00;100766.94;12186944;19;20030;-80
2023/10/01 00:55:01;;;;;;;12.15;4.22;;;;;;;13.01;100.00;100764.16;12187969;19;20015;-80
2023/10/01 00:59:04;;;;;;;7.35;4.07;;;;;;;12.98;100.00;100765.50;12166398;19;20086;-80
2023/10/01 01:03:19;;;;;;;12.88;4.45;;;;;;;12.93;100.00;100757.06;12189767;19;19998;-80
2023/10/01 01:07:23;;;;;;;13.02;4.28;;;;;;;12.89;100.00;100755.88;12188770;19;20078;-80
2023/10/01 01:11:26;;;;;;;12.45;4.70;;;;;;;12.86;100.00;100750.00;12162465;19;20006;-80
2023/10/01 01:15:34;;;;;;;;;;;;;;;12.83;100.00;100744.94;12188338;19;20006;-80
2023/10/01 01:19:38;;;;;;;11.30;4.78;;;;;;;12.80;100.00;100743.50;12190166;19;19934;-80
2023/10/01 01:23:46;;;;;;;14.63;5.50;;;;;;;12.76;100.00;100740.38;12179289;19;20002;-80
2023/10/01 01:27:48;;;;;;;11.32;5.43;;;;;;;12.72;100.00;100739.16;12188946;19;20007;-81
2023/10/01 01:32:06;;;;;;;15.98;6.15;;;;;;;12.69;100.00;100736.88;12197304;19;20025;-81
2023/10/01 01:36:12;;;;;;;15.00;5.97;;;;;;;12.70;100.00;100724.75;12188466;19;20014;-80
2023/10/01 01:44:47;;;;;;;15.57;6.10;;;;;;;12.66;100.00;100714.41;12186921;19;20002;-81
2023/10/01 01:48:52;;;;;;;13.90;5.60;;;;;;;12.66;100.00;100700.59;12206956;19;20473;-79
2023/10/01 01:52:57;;;;;;;12.20;5.38;;;;;;;12.67;100.00;100692.06;12185121;19;20010;-80
2023/10/01 01:57:00;;;;;;;13.48;6.05;;;;;;;12.67;100.00;100694.84;12206515;19;19999;-80
2023/10/01 02:01:09;;;;;;;13.55;6.28;;;;;;;12.66;100.00;100701.41;12207103;19;20011;-81
2023/10/01 02:05:13;;;;;;;11.68;5.18;;;;;;;12.65;100.00;100698.91;12187212;19;20027;-80
2023/10/01 02:09:24;;;;;;;13.45;5.95;;;;;;;12.63;100.00;100695.53;12204342;19;20102;-81
2023/10/01 02:13:27;;;;;;;13.15;6.78;;;;;;;12.64;100.00;100698.09;12208227;19;20099;-80
2023/10/01 02:17:29;;;;;;;11.03;5.73;;;;;;;12.65;100.00;100704.44;12196147;19;20054;-80
2023/10/01 02:21:48;;;;;;;10.98;6.18;;;;;;;12.65;100.00;100699.75;12223284;19;21475;-81
2023/10/01 02:25:51;;;;;;;12.75;5.88;;;;;;;12.64;100.00;100695.31;12215811;19;20003;-80
2023/10/01 02:30:13;;;;;;;11.52;5.75;;;;;;;12.66;100.00;100697.81;12195744;19;20014;-80
2023/10/01 02:34:17;;;;;;;15.43;5.90;;;;;;;12.63;100.00;100696.38;12214463;19;20017;-81
2023/10/01 02:38:43;;;;;;;13.85;5.78;;;;;;;12.59;100.00;100702.66;12193231;19;20014;-80
2023/10/01 02:42:49;;;;;;;16.73;7.03;;;;;;;12.56;100.00;100697.59;12218795;19;20042;-81
2023/10/01 02:46:51;;;;;;;13.88;5.93;;;;;;;12.50;100.00;100699.41;12207603;19;20019;-80
2023/10/01 02:50:54;;;;;;;13.27;6.28;;;;;;;12.39;100.00;100689.19;12214157;19;20034;-80
2023/10/01 02:54:59;;;;;;;11.40;5.82;;;;;;;12.26;100.00;100688.34;12213277;19;20010;-81
2023/10/01 02:59:07;;;;;;;12.23;6.50;;;;;;;12.17;100.00;100681.50;12189638;19;20006;-81
2023/10/01 03:03:17;;;;;;;16.15;6.85;;;;;;;12.14;100.00;100683.91;12220304;19;20456;-83
2023/10/01 03:07:19;;;;;;;13.68;6.75;;;;;;;12.13;100.00;100677.50;12214491;19;20474;-80
2023/10/01 03:11:22;;;;;;;16.23;6.88;;;;;;;12.12;100.00;100673.06;12191641;19;20030;-80
2023/10/01 03:15:29;;;;;;;15.98;6.80;;;;;;;12.06;100.00;100674.88;12216013;19;20011;-80
2023/10/01 03:19:34;;;;;;;14.25;7.03;;;;;;;12.02;100.00;100672.84;12212123;19;20041;-80
2023/10/01 03:23:36;;;;;;;15.85;7.80;;;;;;;11.99;100.00;100665.88;12195993;19;20015;-80
2023/10/01 03:27:39;;;;;;;15.52;8.52;;;;;;;11.94;100.00;100670.41;12211351;19;20010;-81
2023/10/01 03:31:46;;;;;;;14.48;8.00;;;;;;;11.89;100.00;100668.34;12213814;19;20019;-80
2023/10/01 03:35:48;;;;;;;13.32;7.30;;;;;;;11.84;100.00;100677.34;12191701;19;20035;-80
2023/10/01 03:39:50;;;;;;;15.53;7.00;;;;;;;11.80;100.00;100687.16;12210957;19;20015;-80
2023/10/01 03:44:07;;;;;;;14.80;7.82;;;;;;;11.76;100.00;100691.47;12205399;19;20580;-80
2023/10/01 03:48:19;;;;;;;15.75;7.13;;;;;;;11.71;100.00;100688.56;12219181;19;20104;-80
2023/10/01 03:52:21;;;;;;;21.60;7.78;;;;;;;11.66;100.00;100696.75;12211321;19;20527;-80
2023/10/01 03:56:23;;;;;;;15.00;7.80;;;;;;;11.62;100.00;100706.56;12189780;19;20074;-80
2023/10/01 04:00:53;;;;;;;18.17;8.32;;;;;;;11.59;100.00;100712.53;12209131;19;20014;-80
2023/10/01 04:04:57;;;;;;;18.98;8.52;;;;;;;11.55;100.00;100711.34;12190432;19;20002;-80
2023/10/01 04:09:06;;;;;;;18.40;9.60;;;;;;;11.53;100.00;100708.81;12207818;19;20010;-81
2023/10/01 04:13:20;;;;;;;22.08;9.50;;;;;;;11.48;100.00;100699.53;12207949;19;20105;-80
2023/10/01 04:17:25;;;;;;;20.33;10.32;;;;;;;11.47;100.00;100700.63;12185524;19;20011;-80
2023/10/01 04:21:28;;;;;;;19.33;9.32;;;;;;;11.43;100.00;100696.66;12206787;19;20034;-80
2023/10/01 04:25:38;;;;;;;23.58;8.63;;;;;;;11.40;100.00;100703.47;12205788;19;20031;-80
2023/10/01 04:29:44;;;;;;;19.00;9.60;;;;;;;11.40;100.00;100704.31;12180474;19;20003;-80
2023/10/01 04:33:49;;;;;;;17.38;9.43;;;;;;;11.40;100.00;100704.31;12204923;19;20401;-80
2023/10/01 04:37:52;;;;;;;18.05;9.65;;;;;;;11.40;100.00;100703.47;12206482;19;20017;-79
2023/10/01 04:41:59;;;;;;;23.65;10.77;;;;;;;11.39;100.00;100707.28;12219840;19;20470;-80
2023/10/01 04:46:04;;;;;;;25.60;10.30;;;;;;;11.37;100.00;100698.44;12213410;19;20034;-80
2023/10/01 04:50:06;;;;;;;26.75;11.80;;;;;;;11.36;100.00;100700.34;12190900;19;20002;-79
2023/10/01 04:54:08;;;;;;;21.63;10.85;;;;;;;11.35;100.00;100701.41;12207589;19;20031;-80
2023/10/01 04:58:14;;;;;;;;;;;;;;;11.33;100.00;100713.75;12211294;19;20015;-80
2023/10/01 05:02:21;;;;;;;18.55;9.43;;;;;;;11.31;100.00;100711.25;12182729;19;19919;-79
2023/10/01 05:06:27;;;;;;;23.05;10.35;;;;;;;11.29;100.00;100718.91;12208796;19;20002;-79
2023/10/01 05:10:29;;;;;;;20.20;9.48;;;;;;;11.33;100.00;100722.91;12209197;19;20011;-79
2023/10/01 05:14:32;;;;;;;21.45;9.73;;;;;;;11.31;100.00;100725.03;12185124;19;20021;-80
2023/10/01 05:18:34;;;;;;;22.52;9.73;;;;;;;11.33;100.00;100722.91;12205563;19;20010;-80
2023/10/01 05:22:46;;;;;;;24.30;10.88;;;;;;;11.35;100.00;100728.16;12207906;19;20014;-79
2023/10/01 05:26:51;;;;;;;24.25;10.90;;;;;;;11.36;100.00;100732.59;12184915;19;20011;-81
2023/10/01 05:30:58;;;;;;;22.38;10.77;;;;;;;11.36;100.00;100741.75;12208726;19;20006;-81
2023/10/01 05:35:14;;;;;;;24.85;11.35;;;;;;;11.38;100.00;100741.50;12184550;19;20015;-80
2023/10/01 05:39:17;;;;;;;25.35;11.05;;;;;;;11.38;100.00;100744.25;12204955;19;20010;-80
2023/10/01 05:43:19;;;;;;;26.77;12.05;;;;;;;11.38;100.00;100736.81;12207650;19;20034;-82
2023/10/01 05:47:23;;;;;;;25.08;11.32;;;;;;;11.44;100.00;100753.53;12181640;19;20010;-80
2023/10/01 05:51:30;;;;;;;24.35;10.98;;;;;;;11.47;100.00;100758.59;12205319;19;20074;-80
2023/10/01 05:55:32;;;;;;;27.38;12.35;;;;;;;11.51;100.00;100755.13;12205190;19;20382;-80
2023/10/01 05:59:35;;;;;;;;;;;;;;;11.51;100.00;100763.41;12182491;19;20011;-80
2023/10/01 06:03:40;;;;;;;;;;;;;;;11.54;100.00;100760.19;12207036;19;19915;-80
2023/10/01 06:07:43;;;;;;;;;;;;;;;11.59;100.00;100767.75;12203639;19;20243;-81
2023/10/01 06:12:03;;;;;;;;;;;;;;;11.64;100.00;100770.66;12181647;19;19910;-81
2023/10/01 06:16:13;;;;;;;;;;;;;;;11.71;100.00;100765.88;12207255;19;20295;-80
2023/10/01 06:20:26;;;;;;;;;;;;;;;11.75;100.00;100772.63;12182631;19;19919;-80
2023/10/01 06:24:28;;;;;;;;;;;;;;;11.80;100.00;100770.00;12210650;19;19915;-81
2023/10/01 06:28:30;;;;;;;;;;;;;;;11.89;100.00;100773.31;12206139;19;19907;-80
2023/10/01 06:32:34;;;;;;;;;;;;;;;11.95;100.00;100775.13;12182674;19;19917;-80
2023/10/01 06:36:36;;;;;;;;;;;;;;;12.02;100.00;100766.75;12204480;19;19914;-80
2023/10/01 06:40:40;;;;;;;;;;;;;;;12.12;100.00;100771.69;12205487;19;19918;-81
2023/10/01 06:44:43;;;;;;;;;;;;;;;12.20;100.00;100763.91;12183711;19;19914;-80
2023/10/01 06:48:47;;;;;;;;;;;;;;;12.28;100.00;100765.47;12203639;19;19911;-80
2023/10/01 06:53:00;;;;;;;;;;;;;;;12.39;100.00;100769.34;12202267;19;19924;-81
2023/10/01 06:57:16;;;;;;;;;;;;;;;12.50;100.00;100780.41;12222849;19;19907;-81
2023/10/01 07:02:01;;;;;;;;;;;;;;;12.59;100.00;100782.84;12223390;19;19921;-81
2023/10/01 07:05:51;;;;;;;;;;;;;;;12.71;100.00;100780.91;12205096;19;20315;-81
2023/10/01 07:09:53;;;;;;;;;;;;;;;12.83;100.00;100783.69;12222237;19;19915;-81
2023/10/01 07:13:56;;;;;;;;;;;;;;;12.97;100.00;100774.03;12199833;19;19918;-82
2023/10/01 07:17:58;;;;;;;;;;;;;;;13.12;100.00;100774.38;12226098;19;19907;-82
2023/10/01 07:22:06;;;;;;;;;;;;;;;13.29;100.00;100784.72;12223397;19;19907;-82
2023/10/01 07:26:12;;;;;;;;;;;;;;;13.47;100.00;100780.94;12201791;19;19915;-81
2023/10/01 07:30:15;;;;;;;;;;;;;;;13.68;100.00;100780.25;12220344;19;20292;-81
2023/10/01 07:34:17;;;;;;;;;;;;;;;13.85;100.00;100777.53;12218818;19;20037;-81
2023/10/01 07:38:19;;;;;;;;;;;;;;;14.04;100.00;100790.13;12182699;19;20315;-80
2023/10/01 07:42:54;;;;;;;;;;;;;;;14.23;100.00;100787.13;12206064;19;19910;-81
2023/10/01 07:47:03;;;;;;;;;;;;;;;14.46;100.00;100784.19;12177022;19;19915;-82
2023/10/01 07:51:22;;;;;;;;;;;;;;;14.63;100.00;100786.13;12216184;19;19934;-79
2023/10/01 07:55:29;;;;;;;;;;;;;;;14.85;100.00;100783.44;12206462;19;19910;-82
2023/10/01 07:59:34;;;;;;;;;;;;;;;15.12;100.00;100792.72;12190432;19;19924;-81
2023/10/01 08:03:48;;;;;;;;;;;;;;;15.37;100.00;100786.66;12214391;19;19930;-81
2023/10/01 08:07:51;;;;;;;;;;;;;;;15.68;100.00;100784.31;12214462;19;19915;-82
2023/10/01 08:12:05;;;;;;;;;;;;;;;15.87;100.00;100782.84;12183862;19;19947;-82
2023/10/01 08:16:13;;;;;;;;;;;;;;;16.12;100.00;100782.28;12210978;19;19911;-80
2023/10/01 08:20:21;;;;;;;;;;;;;;;16.40;100.00;100795.03;12191054;19;19927;-81
2023/10/01 08:24:33;;;;;;;;;;;;;;;16.62;100.00;100789.38;12206664;19;19970;-80
2023/10/01 08:28:58;;;;;;;;;;;;;;;16.90;100.00;100786.56;12190028;19;19931;-80
2023/10/01 08:33:18;;;;;;;;;;;;;;;17.12;100.00;100780.84;12208827;19;19919;-81
2023/10/01 08:37:22;;;;;;;;;;;;;;;17.31;100.00;100782.03;12208820;19;19906;-80
2023/10/01 08:41:33;;;;;;;;;;;;;;;17.51;100.00;100781.31;12189265;19;19906;-81
2023/10/01 08:45:37;;;;;;;;;;;;;;;17.77;100.00;100774.75;12212266;19;19918;-81
2023/10/01 08:49:47;;;;;;;;;;;;;;;17.97;100.00;100781.50;12207364;19;20250;-80
2023/10/01 08:53:57;;;;;;;;;;;;;;;18.15;100.00;100778.19;12187327;19;19934;-80
2023/10/01 08:58:13;;;;;;;;;;;;;;;18.37;100.00;100774.28;12204986;19;20338;-80
2023/10/01 09:02:22;;;;;;;;;;;;;;;18.57;100.00;100781.81;12195176;19;19930;-81
2023/10/01 09:06:44;;;;;;;;;;;;;;;18.70;100.00;100777.63;12210668;19;19918;-80
2023/10/01 09:10:52;;;;;;;;;;;;;;;18.90;99.79;100778.47;12207136;19;19907;-80
2023/10/01 09:14:55;;;;;;;;;;;;;;;19.12;99.05;100775.31;12181154;19;20006;-81
2023/10/01 09:19:29;;;;;;;;;;;;;;;19.24;95.33;100780.59;12204407;19;19935;-80
2023/10/01 09:23:58;;;;;;;;;;;;;;;19.52;94.12;100786.69;12187333;19;19914;-80
2023/10/01 09:28:29;;;;;;;;;;;;;;;19.76;91.34;100770.09;12204912;19;19970;-81
2023/10/01 09:38:10;;;;;;;;;;;;;;;20.31;89.76;100776.44;12199396;19;20250;-81
2023/10/01 09:52:26;;;;;;;;;;;;;;;20.94;84.48;100775.66;12206188;19;19922;-80
2023/10/01 10:02:02;;;;;;;;;;;;;;;21.20;79.97;100761.34;12172428;19;19928;-81
2023/10/01 10:11:13;;;;;;;;;;;;;;;21.65;77.51;100754.34;12205397;19;19911;-81
2023/10/01 10:15:46;;;;;;;;;;;;;;;21.73;76.99;100766.88;12190393;19;20418;-80
2023/10/01 10:20:25;;;;;;;;;;;;;;;21.82;73.73;100760.28;12207351;19;19915;-81
2023/10/01 10:24:47;;;;;;;;;;;;;;;22.01;71.61;100759.47;12108277;19;2004350;-80
2023/10/01 10:28:53;;;;;;;;;;;;;;;22.13;70.39;100756.19;12210542;19;19914;-80
2023/10/01 10:33:29;;;;;;;;;;;;;;;22.28;70.54;100745.59;12186842;19;19911;-81
2023/10/01 10:37:35;;;;;;;;;;;;;;;22.38;70.65;100743.78;12212691;19;19915;-81
2023/10/01 10:41:57;;;;;;;;;;;;;;;22.52;69.27;100739.88;12195556;19;19910;-78
2023/10/01 10:50:39;;;;;;;;;;;;;;;22.81;66.00;100735.13;12196896;19;19919;-78
2023/10/01 10:55:15;;;;;;;;;;;;;;;23.00;65.22;100738.75;12219809;19;19910;-78
2023/10/01 10:59:17;;;;;;;;;;;;;;;23.05;65.19;100735.81;12182808;19;19918;-78
2023/10/01 11:03:42;;;;;;;;;;;;;;;23.02;64.44;100733.63;12211359;19;19907;-79
2023/10/01 11:07:58;;;;;;;;;;;;;;;23.11;63.53;100723.34;12212112;19;19911;-79
2023/10/01 11:12:18;;;;;;;;;;;;;;;23.18;63.58;100715.31;12189818;19;20461;-79
2023/10/01 11:16:23;;;;;;;;;;;;;;;23.37;64.71;100722.81;12219348;19;19921;-79
2023/10/01 11:20:31;;;;;;;;;;;;;;;23.48;63.76;100713.00;12191696;19;19998;-79
2023/10/01 11:24:33;;;;;;;;;;;;;;;23.60;62.17;100724.56;12214309;19;20628;-78
2023/10/01 11:28:41;;;;;;;;;;;;;;;23.83;60.99;100704.94;12212610;19;19907;-78
2023/10/01 11:33:02;;;;;;;;;;;;;;;24.26;60.79;100707.28;12190875;19;19911;-79
2023/10/01 11:37:13;;;;;;;;;;;;;;;24.57;59.36;100698.91;12214395;19;19913;-79
2023/10/01 11:41:18;;;;;;;;;;;;;;;25.08;56.52;100689.03;12197447;19;19910;-80
2023/10/01 11:45:29;;;;;;;;;;;;;;;25.40;55.85;100679.38;12214191;19;19924;-80
2023/10/01 11:49:34;;;;;;;;;;;;;;;25.93;52.28;100680.25;12210054;19;19929;-80
2023/10/01 11:53:56;;;;;;;;;;;;;;;26.66;50.47;100673.88;12196999;19;20329;-80
2023/10/01 11:57:59;;;;;;;;;;;;;;;27.12;48.46;100667.34;12216803;19;19915;-79
2023/10/01 12:02:20;;;;;;;;;;;;;;;27.46;47.31;100668.34;12191879;19;19921;-79
2023/10/01 12:06:34;;;;;;;;;;;;;;;27.79;47.64;100659.16;12214331;19;19926;-80
2023/10/01 12:10:36;;;;;;;;;;;;;;;28.20;46.58;100654.59;12213366;19;19930;-79
2023/10/01 12:14:56;;;;;;;;;;;;;;;28.45;42.38;100652.72;12193751;19;19918;-80
2023/10/01 12:23:21;;;;;;;;;;;;;;;29.24;41.46;100647.72;12204128;19;20273;-80
2023/10/01 12:27:38;;;;;;;;;;;;;;;29.63;41.94;100639.66;12221946;19;19911;-80
2023/10/01 12:31:44;;;;;;;;;;;;;;;29.82;38.45;100648.34;12225891;19;20356;-80
2023/10/01 12:35:46;;;;;;;;;;;;;;;30.10;40.50;100639.00;12204934;19;19967;-81
2023/10/01 12:39:50;;;;;;;;;;;;;;;30.03;40.50;100628.25;12215105;19;19910;-81
2023/10/01 12:44:14;;;;;;;;;;;;;;;30.10;40.58;100619.97;12214385;19;19911;-81
2023/10/01 12:48:14;;;;;;;;;;;;;;;30.55;38.78;100612.25;12191063;19;19911;-81
2023/10/01 12:52:15;;;;;;;;;;;;;;;30.85;38.47;100612.66;12215068;19;19994;-80
2023/10/01 12:56:43;;;;;;;;;;;;;;;31.17;36.85;100602.03;12194061;19;19925;-81
2023/10/01 13:00:45;;;;;;;;;;;;;;;30.13;37.85;100584.28;12202670;19;19914;-80
2023/10/01 13:04:50;;;;;;;;;;;;;;;28.94;39.58;100584.69;12211741;19;20265;-81
2023/10/01 13:08:56;;;;;;;;;;;;;;;27.93;40.82;100580.38;12187660;19;19914;-80
2023/10/01 13:13:01;;;;;;;;;;;;;;;27.33;41.96;100578.88;12212275;19;19903;-79
2023/10/01 13:17:04;;;;;;;;;;;;;;;26.97;42.60;100575.41;12193458;19;20003;-79
2023/10/01 13:21:13;;;;;;;;;;;;;;;26.76;43.31;100575.38;12217350;19;19939;-79
2023/10/01 13:25:23;;;;;;;;;;;;;;;26.33;44.46;100569.91;12213258;19;19968;-80
2023/10/01 13:29:28;;;;;;;;;;;;;;;25.79;44.66;100566.63;12187781;19;19910;-79
2023/10/01 13:33:53;;;;;;;;;;;;;;;25.65;45.07;100566.84;12205630;19;19914;-80
2023/10/01 13:38:15;;;;;;;;;;;;;;;25.54;45.69;100562.69;12206736;19;19928;-80
2023/10/01 14:12:56;;;;;;;;;;;;;;;24.20;48.63;100539.59;12208590;19;20290;-80
2023/10/01 14:17:12;;;;;;;;;;;;;;;24.09;49.23;100545.53;12193924;19;19925;-79
2023/10/01 14:21:15;;;;;;;;;;;;;;;24.06;49.51;100532.09;12213935;19;19982;-80
2023/10/01 14:25:20;;;;;;;;;;;;;;;24.13;48.80;100530.78;12216144;19;19918;-80
2023/10/01 14:29:22;;;;;;;;;;;;;;;24.41;49.15;100518.16;12197072;19;19918;-80
2023/10/01 14:33:27;;;;;;;;;;;;;;;24.73;48.75;100521.78;12212414;19;19907;-81
2023/10/01 14:37:32;;;;;;;;;;;;;;;24.81;47.79;100511.66;12226182;19;19926;-82
2023/10/01 14:41:38;;;;;;;;;;;;;;;24.78;47.08;100504.72;12198288;19;20390;-80
2023/10/01 14:45:44;;;;;;;;;;;;;;;24.79;47.63;100507.19;12219746;19;19921;-79
2023/10/01 14:49:47;;;;;;;;;;;;;;;24.83;47.54;100503.72;12214955;19;19915;-78
2023/10/01 14:53:54;;;;;;;;;;;;;;;24.93;47.48;100498.59;12193726;19;19931;-79
2023/10/01 14:57:56;;;;;;;;;;;;;;;25.00;46.59;100506.56;12216866;19;19903;-79
2023/10/01 15:02:15;;;;;;;;;;;;;;;24.96;46.62;100495.13;12190105;19;19978;-81
2023/10/01 15:06:18;;;;;;;;;;;;;;;24.90;46.48;100496.44;12238296;19;19917;-81
2023/10/01 15:10:20;;;;;;;;;;;;;;;24.74;46.76;100487.59;12249379;19;19919;-81
2023/10/01 15:14:26;;;;;;;;;;;;;;;24.60;47.89;100488.91;12226260;19;19938;-79
2023/10/01 15:18:33;;;;;;;;;;;;;;;24.47;47.77;100497.16;12224926;19;20401;-82
2023/10/01 15:22:43;;;;;;;;;;;;;;;24.31;47.88;100495.94;12255040;19;19939;-82
2023/10/01 15:26:46;;;;;;;;;;;;;;;24.16;48.24;100497.19;12226813;19;19930;-83
2023/10/01 15:30:49;;;;;;;;;;;;;;;24.06;48.11;100489.88;12252858;19;19918;-83
2023/10/01 15:34:57;;;;;;;;;;;;;;;23.97;48.44;100490.94;12254176;19;19915;-82
2023/10/01 15:39:14;;;;;;;;;;;;;;;23.88;48.97;100483.31;12210580;19;19953;-79
2023/10/01 15:43:20;;;;;;;;;;;;;;;23.82;49.06;100484.56;12231499;19;19942;-79
2023/10/01 15:47:26;;;;;;;;;;;;;;;23.80;49.50;100480.44;12211573;19;19907;-81
2023/10/01 15:51:30;;;;;;;;;;;;;;;23.66;49.34;100469.25;12228671;19;19957;-80
2023/10/01 15:55:32;;;;;;;;;;;;;;;23.62;49.28;100469.06;12231175;19;19930;-80
2023/10/01 15:59:34;;;;;;;;;;;;;;;23.62;49.46;100465.41;12211194;19;19907;-82
2023/10/01 16:03:36;;;;;;;;;;;;;;;23.61;49.62;100469.38;12228320;19;19918;-79
2023/10/01 16:07:38;;;;;;;;;;;;;;;23.56;49.83;100466.72;12226889;19;19920;-81
2023/10/01 16:11:41;;;;;;;;;;;;;;;23.51;49.77;100470.47;12202093;19;19954;-79
2023/10/01 16:15:46;;;;;;;;;;;;;;;23.39;51.04;100476.66;12219328;19;19914;-84
2023/10/01 16:19:48;;;;;;;;;;;;;;;23.24;52.28;100477.06;12221578;19;19911;-81
2023/10/01 16:23:52;;;;;;;;;;;;;;;23.04;53.11;100460.69;12194830;19;19907;-79
2023/10/01 16:27:58;;;;;;;;;;;;;;;22.93;53.37;100468.47;12214616;19;19918;-82
2023/10/01 16:32:00;;;;;;;;;;;;;;;22.86;53.14;100476.53;12193921;19;19921;-79
2023/10/01 16:36:02;;;;;;;;;;;;;;;22.75;53.97;100473.97;12211546;19;19907;-79
2023/10/01 16:40:18;;;;;;;;;;;;;;;22.57;56.04;100474.06;12213081;19;19914;-82
2023/10/01 16:44:21;;;;;;;;;;;;;;;22.28;57.32;100480.88;12193000;19;20260;-83
2023/10/01 16:48:25;;;;;;;;;;;;;;;22.00;59.03;100482.78;12211232;19;19907;-80
2023/10/01 16:52:26;;;;;;;;;;;;;;;21.75;60.15;100482.13;12213257;19;19963;-80
2023/10/01 16:56:29;;;;;;;;;;;;;;;21.51;61.62;100496.31;12191572;19;20003;-80
2023/10/01 17:00:37;;;;;;;;;;;;;;;21.23;63.35;100495.31;12211885;19;19918;-81
2023/10/01 17:04:40;;;;;;;;;;;;;;;20.97;65.29;100480.03;12209589;19;19919;-79
2023/10/01 17:08:44;;;;;;;;;;;;;;;20.72;66.44;100484.88;12186552;19;19918;-82
2023/10/01 17:12:52;;;;;;;;;;;;;;;20.48;68.02;100477.31;12211526;19;19923;-81
2023/10/01 17:17:00;;;;;;;;;;;;;;;20.23;68.82;100472.06;12198027;19;19918;-82
2023/10/01 17:21:13;;;;;;;;;;;;;;;20.03;69.72;100468.34;12212547;19;20496;-79
2023/10/01 17:25:15;;;;;;;;;;;;;;;19.84;70.61;100469.38;12209442;19;20316;-82
2023/10/01 17:29:30;;;;;;;;;;;;;;;19.68;71.32;100465.94;12189682;19;19908;-81
2023/10/01 17:33:31;;;;;;;;;;;;;;;19.51;72.47;100480.28;12211087;19;19998;-80
2023/10/01 17:37:34;;;;;;;;;;;;;;;19.38;73.25;100472.59;12212999;19;19907;-80
2023/10/01 17:41:37;;;;;;;;;;;;;;;19.25;73.22;100479.69;12191482;19;19921;-81
2023/10/01 17:45:46;;;;;;;;;;;;;;;19.16;73.57;100475.88;12208257;19;19918;-82
2023/10/01 17:49:50;;;;;;;;;;;;;;;19.05;73.90;100480.69;12206153;19;20659;-81
2023/10/01 17:54:05;;;;;;;;;;;;;;;18.97;74.15;100478.50;12189240;19;19907;-80
2023/10/01 17:58:09;;;;;;;;;;;;;;;18.88;74.63;100478.28;12214623;19;19934;-82
2023/10/01 18:02:13;;;;;;;;;;;;;;;18.79;75.32;100478.03;12198806;19;19910;-80
2023/10/01 18:06:20;;;;;;;;;;;;;;;18.71;75.52;100489.81;12208257;19;19915;-79
2023/10/01 18:10:41;;;;;;;;;;;;;;;18.65;75.66;100480.63;12210942;19;19914;-82
2023/10/01 18:14:50;;;;;;;;;;;;;;;18.60;75.95;100482.59;12184064;19;19907;-81
2023/10/01 18:18:53;;;;;;;;;;;;;;;18.56;76.53;100479.56;12209936;19;19933;-80
2023/10/01 18:22:57;;;;;;;;;;;;;;;18.52;76.80;100480.41;12206303;19;19918;-79
2023/10/01 18:27:05;;;;;;;;;;;;;;;18.51;77.36;100475.94;12181525;19;21150;-79
2023/10/01 18:31:16;;;;;;;;;;;;;;;18.46;77.29;100485.16;12200766;19;19915;-81
2023/10/01 18:35:24;;;;;;;;;;;;;;;18.45;77.09;100489.91;12179630;19;19915;-79
2023/10/01 18:39:32;;;;;;;;;;;;;;;18.44;77.35;100481.81;12200896;19;19914;-79
2023/10/01 18:43:36;;;;;;;;;;;;;;;18.41;77.26;100483.25;12201106;19;20282;-81
2023/10/01 18:47:38;;;;;;;;;;;;;;;18.41;77.36;100485.19;12174622;19;19926;-80
2023/10/01 18:51:41;;;;;;;;;;;;;;;18.39;77.66;100479.06;12201787;19;19954;-77
2023/10/01 18:55:43;;;;;;;;;;;;;;;18.36;78.02;100483.25;12200183;19;20024;-80
2023/10/01 18:59:48;;;;;;;;;;;;;;;18.33;78.71;100480.22;12185845;19;19925;-79
2023/10/01 19:03:50;;;;;;;;;;;;;;;18.29;78.33;100485.50;12209271;19;19918;-80
2023/10/01 19:07:57;;;;;;;;;;;;;;;18.26;79.00;100477.72;12201755;19;19915;-79
2023/10/01 19:12:00;;;;;;;;;;;;;;;18.24;79.05;100488.34;12188504;19;19926;-81
2023/10/01 19:16:02;;;;;;;;;;;;;;;18.20;79.13;100488.06;12210911;19;19920;-80
2023/10/01 19:20:15;;;;;;;;;;;;;;;18.17;79.54;100483.06;12212760;19;19914;-79
2023/10/01 19:24:19;;;;;;;;;;;;;;;18.16;79.40;100474.97;12213043;19;19918;-80
2023/10/01 19:28:28;;;;;;;;;;;;;;;18.16;78.94;100492.53;12221080;19;19913;-79
2023/10/01 19:32:29;;;;;;;;;;;;;;;18.15;79.30;100484.47;12198810;19;19966;-80
2023/10/01 19:36:31;;;;;;;;;;;;;;;18.11;79.19;100480.56;12222292;19;20598;-80
2023/10/01 19:40:36;;;;;;;;;;;;;;;18.10;79.35;100482.50;12215930;19;19998;-79
2023/10/01 19:44:40;;;;;;;;;;;;;;;18.07;79.10;100477.50;12192504;19;19946;-80
2023/10/01 19:48:52;;;;;;;;;;;;;;;18.05;79.50;100479.72;12212929;19;19919;-78
2023/10/01 19:52:54;;;;;;;;;;;;;;;18.02;79.81;100479.47;12215884;19;19906;-79
2023/10/01 19:57:05;;;;;;;;;;;;;;;17.99;79.77;100476.16;12194050;19;19914;-82
2023/10/01 20:01:14;;;;;;;;;;;;;;;17.98;79.71;100476.41;12210234;19;19919;-78
2023/10/01 20:05:25;;;;;;;;;;;;;;;17.94;79.65;100465.00;12184883;19;19938;-78
2023/10/01 20:09:27;;;;;;;;;;;;;;;17.96;79.06;100461.91;12200095;19;19915;-79
2023/10/01 20:13:31;;;;;;;;;;;;;;;18.01;78.88;100473.06;12212350;19;19910;-79
2023/10/01 20:17:34;;;;;;;;;;;;;;;18.06;78.20;100470.28;12198067;19;19924;-79
2023/10/01 20:21:39;;;;;;;;;;;;;;;18.11;77.61;100466.59;12217925;19;20368;-81
2023/10/01 20:25:41;;;;;;;;;;;;;;;18.15;77.25;100462.97;12213020;19;20520;-78
2023/10/01 20:29:44;;;;;;;;;;;;;;;18.17;77.32;100460.75;12190051;19;19903;-79
2023/10/01 20:33:51;;;;;;;;;;;;;;;18.18;77.32;100456.84;12209520;19;19915;-78
2023/10/01 20:37:56;;;;;;;;;;;;;;;18.17;76.92;100455.19;12213266;19;19962;-78
2023/10/01 20:41:58;;;;;;;;;;;;;;;18.20;77.02;100454.59;12189063;19;19903;-82
2023/10/01 20:46:01;;;;;;;;;;;;;;;18.22;76.39;100448.72;12208334;19;19907;-78
2023/10/01 20:50:04;;;;;;;;;;;;;;;18.22;76.66;100451.50;12209369;19;19915;-78
2023/10/01 20:54:15;;;;;;;;;;;;;;;18.25;76.30;100445.38;12185220;19;19919;-78
2023/10/01 20:58:16;;;;;;;;;;;;;;;18.25;76.27;100444.53;12213197;19;19919;-81
2023/10/01 21:02:19;;;;;;;;;;;;;;;18.27;76.35;100434.75;12186791;19;19951;-80
2023/10/01 21:06:34;;;;;;;;;;;;;;;18.29;76.55;100434.47;12207858;19;19915;-79
2023/10/01 21:10:36;;;;;;;;;;;;;;;18.29;76.75;100440.03;12206484;19;19918;-79
2023/10/01 21:14:48;;;;;;;;;;;;;;;18.29;77.12;100440.03;12188136;19;19906;-81
2023/10/01 21:18:50;;;;;;;;;;;;;;;18.27;77.31;100440.34;12210476;19;19907;-80